Terminal Aerodrome Forecast
Issued by NWS Hastings, NE

Home | Current Version | Previous Version | Text Only | Print | Product List | Glossary On
Versions: 1 2 3 4 5 6 7 8 9 10 11 12 13 14 15 16
000
FTUS43 KGID 211120
TAFGRI
TAF
KGRI 211120Z 2112/2212 VRB05KT P6SM FEW250
     FM211400 14009KT P6SM FEW150
     FM211700 17014G21KT P6SM FEW200
     FM220200 16015G23KT P6SM FEW250 WS009/17040KT
     FM220900 18017G24KT P6SM SKC WS009/19045KT=

USA.gov is the U.S. government's official web portal to all federal, state and local government web resources and services.